sensor_id;sensor_type;location;lat;lon;timestamp;P1;durP1;ratioP1;P2;durP2;ratioP2
13238;SDS011;6686;51.292;4.166;2023-05-20T00:00:55;10.00;;;7.13;;
13238;SDS011;6686;51.292;4.166;2023-05-20T00:03:40;12.80;;;6.67;;
13238;SDS011;6686;51.292;4.166;2023-05-20T00:06:26;12.90;;;7.37;;
13238;SDS011;6686;51.292;4.166;2023-05-20T00:09:12;8.23;;;6.43;;
13238;SDS011;6686;51.292;4.166;2023-05-20T00:11:58;10.97;;;6.77;;
13238;SDS011;6686;51.292;4.166;2023-05-20T00:14:44;9.63;;;6.03;;
13238;SDS011;6686;51.292;4.166;2023-05-20T00:17:30;8.33;;;6.27;;
13238;SDS011;6686;51.292;4.166;2023-05-20T00:20:16;11.70;;;6.07;;
13238;SDS011;6686;51.292;4.166;2023-05-20T00:23:02;7.03;;;5.43;;
13238;SDS011;6686;51.292;4.166;2023-05-20T00:25:48;8.13;;;5.60;;
13238;SDS011;6686;51.292;4.166;2023-05-20T00:28:34;9.83;;;5.27;;
13238;SDS011;6686;51.292;4.166;2023-05-20T00:31:20;7.33;;;5.50;;
13238;SDS011;6686;51.292;4.166;2023-05-20T00:34:05;7.90;;;5.30;;
13238;SDS011;6686;51.292;4.166;2023-05-20T00:36:52;8.53;;;5.23;;
13238;SDS011;6686;51.292;4.166;2023-05-20T00:39:41;6.83;;;4.73;;
13238;SDS011;6686;51.292;4.166;2023-05-20T00:42:24;11.63;;;5.13;;
13238;SDS011;6686;51.292;4.166;2023-05-20T00:45:09;9.53;;;4.70;;
13238;SDS011;6686;51.292;4.166;2023-05-20T00:47:55;9.63;;;4.63;;
13238;SDS011;6686;51.292;4.166;2023-05-20T00:50:41;7.37;;;4.53;;
13238;SDS011;6686;51.292;4.166;2023-05-20T00:53:27;7.13;;;4.53;;
13238;SDS011;6686;51.292;4.166;2023-05-20T00:56:13;7.63;;;4.63;;
13238;SDS011;6686;51.292;4.166;2023-05-20T00:58:59;9.90;;;4.87;;
13238;SDS011;6686;51.292;4.166;2023-05-20T01:01:45;12.33;;;4.60;;
13238;SDS011;6686;51.292;4.166;2023-05-20T01:04:31;7.77;;;4.90;;
13238;SDS011;6686;51.292;4.166;2023-05-20T01:07:17;8.50;;;4.60;;
13238;SDS011;6686;51.292;4.166;2023-05-20T01:10:02;9.83;;;5.00;;
13238;SDS011;6686;51.292;4.166;2023-05-20T01:12:49;8.43;;;4.50;;
13238;SDS011;6686;51.292;4.166;2023-05-20T01:15:35;11.27;;;4.97;;
13238;SDS011;6686;51.292;4.166;2023-05-20T01:18:20;8.67;;;5.53;;
13238;SDS011;6686;51.292;4.166;2023-05-20T01:21:07;10.97;;;5.10;;
13238;SDS011;6686;51.292;4.166;2023-05-20T01:23:53;5.30;;;4.53;;
13238;SDS011;6686;51.292;4.166;2023-05-20T01:26:38;11.77;;;5.30;;
13238;SDS011;6686;51.292;4.166;2023-05-20T01:29:34;8.17;;;4.50;;
13238;SDS011;6686;51.292;4.166;2023-05-20T01:32:22;8.63;;;4.70;;
13238;SDS011;6686;51.292;4.166;2023-05-20T01:35:53;6.17;;;4.90;;
13238;SDS011;6686;51.292;4.166;2023-05-20T01:38:39;5.60;;;4.57;;
13238;SDS011;6686;51.292;4.166;2023-05-20T01:41:26;8.10;;;4.87;;
13238;SDS011;6686;51.292;4.166;2023-05-20T01:44:12;7.20;;;5.03;;
13238;SDS011;6686;51.292;4.166;2023-05-20T01:46:58;8.50;;;4.80;;
13238;SDS011;6686;51.292;4.166;2023-05-20T01:49:44;8.67;;;5.07;;
13238;SDS011;6686;51.292;4.166;2023-05-20T01:52:30;9.50;;;4.77;;
13238;SDS011;6686;51.292;4.166;2023-05-20T01:55:15;8.93;;;5.07;;
13238;SDS011;6686;51.292;4.166;2023-05-20T01:58:01;11.77;;;4.53;;
13238;SDS011;6686;51.292;4.166;2023-05-20T02:00:48;9.57;;;5.30;;
13238;SDS011;6686;51.292;4.166;2023-05-20T02:03:34;7.03;;;5.00;;
13238;SDS011;6686;51.292;4.166;2023-05-20T02:06:20;8.07;;;5.10;;
13238;SDS011;6686;51.292;4.166;2023-05-20T02:09:06;9.85;;;5.82;;
13238;SDS011;6686;51.292;4.166;2023-05-20T02:11:53;9.80;;;5.07;;
13238;SDS011;6686;51.292;4.166;2023-05-20T02:14:38;9.57;;;4.80;;
13238;SDS011;6686;51.292;4.166;2023-05-20T02:17:25;10.40;;;4.93;;
13238;SDS011;6686;51.292;4.166;2023-05-20T02:20:11;9.37;;;5.30;;
13238;SDS011;6686;51.292;4.166;2023-05-20T02:22:57;8.13;;;5.23;;
13238;SDS011;6686;51.292;4.166;2023-05-20T02:25:43;6.77;;;4.93;;
13238;SDS011;6686;51.292;4.166;2023-05-20T02:28:28;6.53;;;5.10;;
13238;SDS011;6686;51.292;4.166;2023-05-20T02:31:14;9.10;;;5.30;;
13238;SDS011;6686;51.292;4.166;2023-05-20T02:34:00;7.57;;;4.77;;
13238;SDS011;6686;51.292;4.166;2023-05-20T02:36:46;7.77;;;5.17;;
13238;SDS011;6686;51.292;4.166;2023-05-20T02:39:32;5.53;;;4.57;;
13238;SDS011;6686;51.292;4.166;2023-05-20T02:42:18;9.30;;;5.00;;
13238;SDS011;6686;51.292;4.166;2023-05-20T02:45:04;6.13;;;4.93;;
13238;SDS011;6686;51.292;4.166;2023-05-20T02:47:50;10.02;;;6.05;;
13238;SDS011;6686;51.292;4.166;2023-05-20T02:50:39;8.63;;;5.10;;
13238;SDS011;6686;51.292;4.166;2023-05-20T02:53:25;5.83;;;4.73;;
13238;SDS011;6686;51.292;4.166;2023-05-20T02:56:11;10.20;;;5.10;;
13238;SDS011;6686;51.292;4.166;2023-05-20T02:58:57;9.83;;;5.77;;
13238;SDS011;6686;51.292;4.166;2023-05-20T03:01:42;10.07;;;5.40;;
13238;SDS011;6686;51.292;4.166;2023-05-20T03:04:28;7.90;;;5.27;;
13238;SDS011;6686;51.292;4.166;2023-05-20T03:07:14;9.30;;;5.37;;
13238;SDS011;6686;51.292;4.166;2023-05-20T03:10:00;8.33;;;5.47;;
13238;SDS011;6686;51.292;4.166;2023-05-20T03:12:46;8.00;;;4.77;;
13238;SDS011;6686;51.292;4.166;2023-05-20T03:15:32;8.67;;;4.63;;
13238;SDS011;6686;51.292;4.166;2023-05-20T03:18:18;10.27;;;6.00;;
13238;SDS011;6686;51.292;4.166;2023-05-20T03:23:41;6.60;;;4.40;;
13238;SDS011;6686;51.292;4.166;2023-05-20T03:26:28;5.80;;;4.77;;
13238;SDS011;6686;51.292;4.166;2023-05-20T03:29:15;9.73;;;5.27;;
13238;SDS011;6686;51.292;4.166;2023-05-20T03:32:00;9.07;;;4.80;;
13238;SDS011;6686;51.292;4.166;2023-05-20T03:34:46;6.57;;;5.10;;
13238;SDS011;6686;51.292;4.166;2023-05-20T03:37:32;7.10;;;4.80;;
13238;SDS011;6686;51.292;4.166;2023-05-20T03:40:19;8.07;;;4.97;;
13238;SDS011;6686;51.292;4.166;2023-05-20T03:43:05;10.57;;;5.17;;
13238;SDS011;6686;51.292;4.166;2023-05-20T03:45:50;6.00;;;4.70;;
13238;SDS011;6686;51.292;4.166;2023-05-20T03:48:36;6.80;;;4.83;;
13238;SDS011;6686;51.292;4.166;2023-05-20T03:51:22;7.20;;;5.50;;
13238;SDS011;6686;51.292;4.166;2023-05-20T03:54:09;8.83;;;5.30;;
13238;SDS011;6686;51.292;4.166;2023-05-20T03:56:54;7.50;;;5.03;;
13238;SDS011;6686;51.292;4.166;2023-05-20T03:59:40;8.17;;;5.50;;
13238;SDS011;6686;51.292;4.166;2023-05-20T04:02:27;8.73;;;5.33;;
13238;SDS011;6686;51.292;4.166;2023-05-20T04:05:12;8.37;;;4.77;;
13238;SDS011;6686;51.292;4.166;2023-05-20T04:07:59;10.70;;;5.70;;
13238;SDS011;6686;51.292;4.166;2023-05-20T04:10:45;8.20;;;5.40;;
13238;SDS011;6686;51.292;4.166;2023-05-20T04:13:31;9.23;;;5.67;;
13238;SDS011;6686;51.292;4.166;2023-05-20T04:16:17;9.40;;;6.10;;
13238;SDS011;6686;51.292;4.166;2023-05-20T04:19:04;10.53;;;6.50;;
13238;SDS011;6686;51.292;4.166;2023-05-20T04:21:49;10.90;;;5.87;;
13238;SDS011;6686;51.292;4.166;2023-05-20T04:24:36;10.13;;;5.50;;
13238;SDS011;6686;51.292;4.166;2023-05-20T04:27:22;7.27;;;5.57;;
13238;SDS011;6686;51.292;4.166;2023-05-20T04:30:08;8.23;;;6.80;;
13238;SDS011;6686;51.292;4.166;2023-05-20T04:32:54;11.67;;;5.90;;
13238;SDS011;6686;51.292;4.166;2023-05-20T04:35:40;10.90;;;6.03;;
13238;SDS011;6686;51.292;4.166;2023-05-20T04:38:25;10.50;;;5.73;;
13238;SDS011;6686;51.292;4.166;2023-05-20T04:41:14;10.97;;;6.40;;
13238;SDS011;6686;51.292;4.166;2023-05-20T04:44:00;10.93;;;6.60;;
13238;SDS011;6686;51.292;4.166;2023-05-20T04:46:46;8.60;;;6.20;;
13238;SDS011;6686;51.292;4.166;2023-05-20T04:49:31;11.00;;;6.47;;
13238;SDS011;6686;51.292;4.166;2023-05-20T04:52:17;9.93;;;6.67;;
13238;SDS011;6686;51.292;4.166;2023-05-20T04:55:04;9.10;;;6.50;;
13238;SDS011;6686;51.292;4.166;2023-05-20T04:57:55;9.13;;;7.17;;
13238;SDS011;6686;51.292;4.166;2023-05-20T05:00:41;9.47;;;6.50;;
13238;SDS011;6686;51.292;4.166;2023-05-20T05:03:27;8.03;;;6.60;;
13238;SDS011;6686;51.292;4.166;2023-05-20T05:06:12;8.13;;;6.33;;
13238;SDS011;6686;51.292;4.166;2023-05-20T05:08:58;7.80;;;5.60;;
13238;SDS011;6686;51.292;4.166;2023-05-20T05:11:44;9.43;;;6.20;;
13238;SDS011;6686;51.292;4.166;2023-05-20T05:14:30;10.70;;;5.80;;
13238;SDS011;6686;51.292;4.166;2023-05-20T05:17:16;10.93;;;5.47;;
13238;SDS011;6686;51.292;4.166;2023-05-20T05:20:01;7.57;;;5.23;;
13238;SDS011;6686;51.292;4.166;2023-05-20T05:22:47;9.43;;;5.70;;
13238;SDS011;6686;51.292;4.166;2023-05-20T05:25:34;11.20;;;5.37;;
13238;SDS011;6686;51.292;4.166;2023-05-20T05:28:19;8.10;;;5.87;;
13238;SDS011;6686;51.292;4.166;2023-05-20T05:31:05;9.00;;;5.83;;
13238;SDS011;6686;51.292;4.166;2023-05-20T05:33:51;11.30;;;5.60;;
13238;SDS011;6686;51.292;4.166;2023-05-20T05:36:38;8.47;;;6.23;;
13238;SDS011;6686;51.292;4.166;2023-05-20T05:39:23;15.03;;;5.53;;
13238;SDS011;6686;51.292;4.166;2023-05-20T05:42:09;6.13;;;5.00;;
13238;SDS011;6686;51.292;4.166;2023-05-20T05:44:55;7.27;;;5.47;;
13238;SDS011;6686;51.292;4.166;2023-05-20T05:47:41;8.07;;;5.10;;
13238;SDS011;6686;51.292;4.166;2023-05-20T05:50:27;5.27;;;4.60;;
13238;SDS011;6686;51.292;4.166;2023-05-20T05:53:13;6.80;;;5.03;;
13238;SDS011;6686;51.292;4.166;2023-05-20T05:55:59;8.80;;;5.43;;
13238;SDS011;6686;51.292;4.166;2023-05-20T05:58:45;7.60;;;5.37;;
13238;SDS011;6686;51.292;4.166;2023-05-20T06:01:30;11.63;;;6.03;;
13238;SDS011;6686;51.292;4.166;2023-05-20T06:04:16;8.80;;;5.80;;
13238;SDS011;6686;51.292;4.166;2023-05-20T06:07:02;9.87;;;5.87;;
13238;SDS011;6686;51.292;4.166;2023-05-20T06:09:48;9.70;;;5.63;;
13238;SDS011;6686;51.292;4.166;2023-05-20T06:12:33;8.20;;;6.40;;
13238;SDS011;6686;51.292;4.166;2023-05-20T06:15:19;8.20;;;5.17;;
13238;SDS011;6686;51.292;4.166;2023-05-20T06:18:05;9.20;;;6.00;;
13238;SDS011;6686;51.292;4.166;2023-05-20T06:20:58;7.70;;;5.80;;
13238;SDS011;6686;51.292;4.166;2023-05-20T06:23:44;9.77;;;6.10;;
13238;SDS011;6686;51.292;4.166;2023-05-20T06:26:30;7.87;;;5.97;;
13238;SDS011;6686;51.292;4.166;2023-05-20T06:29:15;8.87;;;5.73;;
13238;SDS011;6686;51.292;4.166;2023-05-20T06:32:01;12.50;;;5.73;;
13238;SDS011;6686;51.292;4.166;2023-05-20T06:34:48;6.87;;;5.17;;
13238;SDS011;6686;51.292;4.166;2023-05-20T06:37:34;11.27;;;5.53;;
13238;SDS011;6686;51.292;4.166;2023-05-20T06:40:20;10.63;;;4.87;;
13238;SDS011;6686;51.292;4.166;2023-05-20T06:43:06;7.10;;;5.37;;
13238;SDS011;6686;51.292;4.166;2023-05-20T06:45:52;8.73;;;6.00;;
13238;SDS011;6686;51.292;4.166;2023-05-20T06:48:38;8.53;;;5.57;;
13238;SDS011;6686;51.292;4.166;2023-05-20T06:51:24;9.10;;;5.87;;
13238;SDS011;6686;51.292;4.166;2023-05-20T06:54:10;7.33;;;5.50;;
13238;SDS011;6686;51.292;4.166;2023-05-20T06:56:56;9.83;;;5.67;;
13238;SDS011;6686;51.292;4.166;2023-05-20T06:59:42;8.43;;;5.95;;
13238;SDS011;6686;51.292;4.166;2023-05-20T07:02:28;9.40;;;5.60;;
13238;SDS011;6686;51.292;4.166;2023-05-20T07:05:14;9.93;;;5.47;;
13238;SDS011;6686;51.292;4.166;2023-05-20T07:08:00;8.37;;;5.83;;
13238;SDS011;6686;51.292;4.166;2023-05-20T07:10:46;10.37;;;5.80;;
13238;SDS011;6686;51.292;4.166;2023-05-20T07:13:32;7.43;;;5.90;;
13238;SDS011;6686;51.292;4.166;2023-05-20T07:16:18;8.10;;;5.87;;
13238;SDS011;6686;51.292;4.166;2023-05-20T07:19:04;7.00;;;4.70;;
13238;SDS011;6686;51.292;4.166;2023-05-20T07:21:49;6.40;;;5.57;;
13238;SDS011;6686;51.292;4.166;2023-05-20T07:24:36;8.70;;;6.00;;
13238;SDS011;6686;51.292;4.166;2023-05-20T07:27:22;9.70;;;5.70;;
13238;SDS011;6686;51.292;4.166;2023-05-20T07:30:08;7.43;;;5.27;;
13238;SDS011;6686;51.292;4.166;2023-05-20T07:32:53;9.67;;;5.77;;
13238;SDS011;6686;51.292;4.166;2023-05-20T07:35:40;6.73;;;4.87;;
13238;SDS011;6686;51.292;4.166;2023-05-20T07:38:26;5.67;;;4.10;;
13238;SDS011;6686;51.292;4.166;2023-05-20T07:41:12;9.67;;;4.67;;
13238;SDS011;6686;51.292;4.166;2023-05-20T07:43:58;7.63;;;4.43;;
13238;SDS011;6686;51.292;4.166;2023-05-20T07:46:43;5.70;;;4.13;;
13238;SDS011;6686;51.292;4.166;2023-05-20T07:49:29;7.90;;;4.40;;
13238;SDS011;6686;51.292;4.166;2023-05-20T07:52:15;6.77;;;4.40;;
13238;SDS011;6686;51.292;4.166;2023-05-20T07:55:01;6.70;;;4.53;;
13238;SDS011;6686;51.292;4.166;2023-05-20T07:57:47;8.07;;;4.50;;
13238;SDS011;6686;51.292;4.166;2023-05-20T08:00:33;7.50;;;4.10;;
13238;SDS011;6686;51.292;4.166;2023-05-20T08:03:19;5.50;;;4.57;;
13238;SDS011;6686;51.292;4.166;2023-05-20T08:06:05;5.93;;;4.50;;
13238;SDS011;6686;51.292;4.166;2023-05-20T08:08:51;5.87;;;3.93;;
13238;SDS011;6686;51.292;4.166;2023-05-20T08:11:43;5.37;;;4.23;;
13238;SDS011;6686;51.292;4.166;2023-05-20T08:14:29;6.03;;;4.87;;
13238;SDS011;6686;51.292;4.166;2023-05-20T08:17:14;6.17;;;4.90;;
13238;SDS011;6686;51.292;4.166;2023-05-20T08:20:00;7.28;;;5.47;;
13238;SDS011;6686;51.292;4.166;2023-05-20T08:22:46;7.37;;;4.30;;
13238;SDS011;6686;51.292;4.166;2023-05-20T08:25:32;5.23;;;3.67;;
13238;SDS011;6686;51.292;4.166;2023-05-20T08:28:19;7.40;;;4.80;;
13238;SDS011;6686;51.292;4.166;2023-05-20T08:31:05;8.43;;;4.93;;
13238;SDS011;6686;51.292;4.166;2023-05-20T08:33:51;6.33;;;4.13;;
13238;SDS011;6686;51.292;4.166;2023-05-20T08:36:37;5.90;;;3.30;;
13238;SDS011;6686;51.292;4.166;2023-05-20T08:39:23;5.13;;;3.63;;
13238;SDS011;6686;51.292;4.166;2023-05-20T08:42:09;5.60;;;4.13;;
13238;SDS011;6686;51.292;4.166;2023-05-20T08:44:55;4.03;;;3.63;;
13238;SDS011;6686;51.292;4.166;2023-05-20T08:47:41;12.07;;;4.07;;
13238;SDS011;6686;51.292;4.166;2023-05-20T08:50:26;9.13;;;4.60;;
13238;SDS011;6686;51.292;4.166;2023-05-20T08:53:12;8.17;;;3.60;;
13238;SDS011;6686;51.292;4.166;2023-05-20T08:55:59;4.60;;;3.03;;
13238;SDS011;6686;51.292;4.166;2023-05-20T08:58:44;6.50;;;3.60;;
13238;SDS011;6686;51.292;4.166;2023-05-20T09:01:29;6.00;;;3.83;;
13238;SDS011;6686;51.292;4.166;2023-05-20T09:04:15;3.33;;;3.03;;
13238;SDS011;6686;51.292;4.166;2023-05-20T09:07:01;5.40;;;3.93;;
13238;SDS011;6686;51.292;4.166;2023-05-20T09:09:47;4.80;;;3.80;;
13238;SDS011;6686;51.292;4.166;2023-05-20T09:12:33;5.57;;;3.87;;
13238;SDS011;6686;51.292;4.166;2023-05-20T09:15:20;4.50;;;3.30;;
13238;SDS011;6686;51.292;4.166;2023-05-20T09:18:06;5.40;;;3.63;;
13238;SDS011;6686;51.292;4.166;2023-05-20T09:21:03;3.70;;;3.27;;
13238;SDS011;6686;51.292;4.166;2023-05-20T09:23:46;4.70;;;3.55;;
13238;SDS011;6686;51.292;4.166;2023-05-20T09:26:32;8.38;;;3.87;;
13238;SDS011;6686;51.292;4.166;2023-05-20T09:29:17;4.63;;;3.13;;
13238;SDS011;6686;51.292;4.166;2023-05-20T09:32:03;5.00;;;3.47;;
13238;SDS011;6686;51.292;4.166;2023-05-20T09:37:43;3.77;;;3.13;;
13238;SDS011;6686;51.292;4.166;2023-05-20T09:40:28;6.13;;;4.00;;
13238;SDS011;6686;51.292;4.166;2023-05-20T09:43:14;7.50;;;3.40;;
13238;SDS011;6686;51.292;4.166;2023-05-20T09:46:00;3.27;;;2.90;;
13238;SDS011;6686;51.292;4.166;2023-05-20T09:48:46;5.13;;;2.47;;
13238;SDS011;6686;51.292;4.166;2023-05-20T09:51:33;5.67;;;2.80;;
13238;SDS011;6686;51.292;4.166;2023-05-20T09:54:19;8.33;;;2.90;;
13238;SDS011;6686;51.292;4.166;2023-05-20T09:57:05;4.27;;;2.70;;
13238;SDS011;6686;51.292;4.166;2023-05-20T09:59:51;8.27;;;4.80;;
13238;SDS011;6686;51.292;4.166;2023-05-20T10:02:36;7.03;;;3.00;;
13238;SDS011;6686;51.292;4.166;2023-05-20T10:05:35;3.63;;;2.63;;
13238;SDS011;6686;51.292;4.166;2023-05-20T10:17:29;5.80;;;2.80;;
13238;SDS011;6686;51.292;4.166;2023-05-20T10:20:31;4.43;;;3.10;;
13238;SDS011;6686;51.292;4.166;2023-05-20T10:23:20;4.40;;;2.93;;
13238;SDS011;6686;51.292;4.166;2023-05-20T10:26:06;3.47;;;2.90;;
13238;SDS011;6686;51.292;4.166;2023-05-20T10:28:52;4.23;;;2.70;;
13238;SDS011;6686;51.292;4.166;2023-05-20T10:31:43;2.87;;;2.40;;
13238;SDS011;6686;51.292;4.166;2023-05-20T10:34:24;4.03;;;2.63;;
13238;SDS011;6686;51.292;4.166;2023-05-20T10:37:19;3.37;;;2.50;;
13238;SDS011;6686;51.292;4.166;2023-05-20T10:40:03;4.25;;;2.67;;
13238;SDS011;6686;51.292;4.166;2023-05-20T10:42:57;5.17;;;2.30;;
13238;SDS011;6686;51.292;4.166;2023-05-20T10:45:49;3.73;;;2.53;;
13238;SDS011;6686;51.292;4.166;2023-05-20T10:48:34;3.13;;;2.30;;
13238;SDS011;6686;51.292;4.166;2023-05-20T10:51:20;6.57;;;2.73;;
13238;SDS011;6686;51.292;4.166;2023-05-20T10:54:08;6.43;;;2.60;;
13238;SDS011;6686;51.292;4.166;2023-05-20T10:56:52;5.60;;;2.30;;
13238;SDS011;6686;51.292;4.166;2023-05-20T10:59:38;3.03;;;2.47;;
13238;SDS011;6686;51.292;4.166;2023-05-20T11:02:24;2.73;;;2.10;;
13238;SDS011;6686;51.292;4.166;2023-05-20T11:05:12;3.73;;;3.07;;
13238;SDS011;6686;51.292;4.166;2023-05-20T11:08:01;3.07;;;2.23;;
13238;SDS011;6686;51.292;4.166;2023-05-20T11:10:47;3.90;;;2.77;;
13238;SDS011;6686;51.292;4.166;2023-05-20T11:13:33;4.28;;;2.62;;
13238;SDS011;6686;51.292;4.166;2023-05-20T11:16:19;5.80;;;2.60;;
13238;SDS011;6686;51.292;4.166;2023-05-20T11:19:13;4.77;;;2.90;;
13238;SDS011;6686;51.292;4.166;2023-05-20T11:22:00;4.10;;;2.65;;
13238;SDS011;6686;51.292;4.166;2023-05-20T11:24:46;4.53;;;2.20;;
13238;SDS011;6686;51.292;4.166;2023-05-20T11:27:32;6.87;;;2.77;;
13238;SDS011;6686;51.292;4.166;2023-05-20T11:30:18;3.17;;;2.30;;
13238;SDS011;6686;51.292;4.166;2023-05-20T11:33:04;4.87;;;2.47;;
13238;SDS011;6686;51.292;4.166;2023-05-20T11:35:55;4.70;;;2.47;;
13238;SDS011;6686;51.292;4.166;2023-05-20T11:38:41;3.70;;;2.47;;
13238;SDS011;6686;51.292;4.166;2023-05-20T11:41:27;2.83;;;2.47;;
13238;SDS011;6686;51.292;4.166;2023-05-20T11:44:13;3.55;;;2.58;;
13238;SDS011;6686;51.292;4.166;2023-05-20T11:47:00;3.53;;;2.30;;
13238;SDS011;6686;51.292;4.166;2023-05-20T11:49:47;4.87;;;2.30;;
13238;SDS011;6686;51.292;4.166;2023-05-20T11:52:32;3.40;;;2.33;;
13238;SDS011;6686;51.292;4.166;2023-05-20T11:55:17;2.53;;;2.33;;
13238;SDS011;6686;51.292;4.166;2023-05-20T11:58:03;4.78;;;2.50;;
13238;SDS011;6686;51.292;4.166;2023-05-20T12:00:49;4.90;;;2.87;;
13238;SDS011;6686;51.292;4.166;2023-05-20T12:03:35;3.60;;;3.00;;
13238;SDS011;6686;51.292;4.166;2023-05-20T12:06:21;4.23;;;3.10;;
13238;SDS011;6686;51.292;4.166;2023-05-20T12:09:07;5.37;;;2.67;;
13238;SDS011;6686;51.292;4.166;2023-05-20T12:11:53;4.93;;;2.80;;
13238;SDS011;6686;51.292;4.166;2023-05-20T12:14:39;4.20;;;2.63;;
13238;SDS011;6686;51.292;4.166;2023-05-20T12:17:25;3.57;;;2.30;;
13238;SDS011;6686;51.292;4.166;2023-05-20T12:20:12;4.18;;;3.00;;
13238;SDS011;6686;51.292;4.166;2023-05-20T12:23:00;5.33;;;2.70;;
13238;SDS011;6686;51.292;4.166;2023-05-20T12:25:46;3.47;;;2.80;;
13238;SDS011;6686;51.292;4.166;2023-05-20T12:28:32;4.40;;;2.80;;
13238;SDS011;6686;51.292;4.166;2023-05-20T12:31:20;4.87;;;2.60;;
13238;SDS011;6686;51.292;4.166;2023-05-20T12:34:06;4.23;;;2.40;;
13238;SDS011;6686;51.292;4.166;2023-05-20T12:36:52;3.60;;;2.62;;
13238;SDS011;6686;51.292;4.166;2023-05-20T12:39:38;4.70;;;2.63;;
13238;SDS011;6686;51.292;4.166;2023-05-20T12:42:24;4.80;;;3.00;;
13238;SDS011;6686;51.292;4.166;2023-05-20T12:45:10;5.27;;;2.90;;
13238;SDS011;6686;51.292;4.166;2023-05-20T12:47:56;2.93;;;2.40;;
13238;SDS011;6686;51.292;4.166;2023-05-20T12:50:42;3.77;;;2.70;;
13238;SDS011;6686;51.292;4.166;2023-05-20T12:53:28;3.83;;;2.77;;
13238;SDS011;6686;51.292;4.166;2023-05-20T12:56:14;4.03;;;3.17;;
13238;SDS011;6686;51.292;4.166;2023-05-20T12:59:00;6.50;;;3.10;;
13238;SDS011;6686;51.292;4.166;2023-05-20T13:01:47;4.00;;;2.63;;
13238;SDS011;6686;51.292;4.166;2023-05-20T13:04:32;2.57;;;2.30;;
13238;SDS011;6686;51.292;4.166;2023-05-20T13:07:17;4.07;;;2.80;;
13238;SDS011;6686;51.292;4.166;2023-05-20T13:10:03;4.90;;;3.12;;
13238;SDS011;6686;51.292;4.166;2023-05-20T13:12:49;6.47;;;2.73;;
13238;SDS011;6686;51.292;4.166;2023-05-20T13:15:35;4.17;;;3.17;;
13238;SDS011;6686;51.292;4.166;2023-05-20T13:18:22;3.90;;;3.00;;
13238;SDS011;6686;51.292;4.166;2023-05-20T13:21:07;2.97;;;2.67;;
13238;SDS011;6686;51.292;4.166;2023-05-20T13:23:53;3.10;;;2.83;;
13238;SDS011;6686;51.292;4.166;2023-05-20T13:26:39;3.90;;;2.63;;
13238;SDS011;6686;51.292;4.166;2023-05-20T13:29:28;5.10;;;3.00;;
13238;SDS011;6686;51.292;4.166;2023-05-20T13:32:14;4.40;;;2.97;;
13238;SDS011;6686;51.292;4.166;2023-05-20T13:35:00;3.87;;;2.90;;
13238;SDS011;6686;51.292;4.166;2023-05-20T13:37:46;5.60;;;2.90;;
13238;SDS011;6686;51.292;4.166;2023-05-20T13:40:32;4.30;;;2.70;;
13238;SDS011;6686;51.292;4.166;2023-05-20T13:43:18;4.43;;;2.60;;
13238;SDS011;6686;51.292;4.166;2023-05-20T13:46:03;2.97;;;2.67;;
13238;SDS011;6686;51.292;4.166;2023-05-20T13:48:49;4.23;;;2.90;;
13238;SDS011;6686;51.292;4.166;2023-05-20T13:51:35;3.40;;;2.80;;
13238;SDS011;6686;51.292;4.166;2023-05-20T13:54:21;3.10;;;2.80;;
13238;SDS011;6686;51.292;4.166;2023-05-20T13:57:07;3.80;;;3.10;;
13238;SDS011;6686;51.292;4.166;2023-05-20T13:59:53;4.40;;;3.13;;
13238;SDS011;6686;51.292;4.166;2023-05-20T14:02:38;3.63;;;2.87;;
13238;SDS011;6686;51.292;4.166;2023-05-20T14:05:24;3.47;;;2.83;;
13238;SDS011;6686;51.292;4.166;2023-05-20T14:08:11;4.00;;;2.80;;
13238;SDS011;6686;51.292;4.166;2023-05-20T14:10:56;4.83;;;3.00;;
13238;SDS011;6686;51.292;4.166;2023-05-20T14:13:42;3.67;;;2.77;;
13238;SDS011;6686;51.292;4.166;2023-05-20T14:16:28;6.10;;;3.27;;
13238;SDS011;6686;51.292;4.166;2023-05-20T14:19:14;3.57;;;2.90;;
13238;SDS011;6686;51.292;4.166;2023-05-20T14:22:00;3.07;;;2.80;;
13238;SDS011;6686;51.292;4.166;2023-05-20T14:24:46;3.27;;;2.60;;
13238;SDS011;6686;51.292;4.166;2023-05-20T14:27:32;5.57;;;2.53;;
13238;SDS011;6686;51.292;4.166;2023-05-20T14:30:18;5.20;;;2.63;;
13238;SDS011;6686;51.292;4.166;2023-05-20T14:33:04;10.27;;;3.90;;
13238;SDS011;6686;51.292;4.166;2023-05-20T14:35:50;6.33;;;3.13;;
13238;SDS011;6686;51.292;4.166;2023-05-20T14:38:36;3.77;;;3.03;;
13238;SDS011;6686;51.292;4.166;2023-05-20T14:41:21;4.33;;;3.10;;
13238;SDS011;6686;51.292;4.166;2023-05-20T14:44:07;6.13;;;3.60;;
13238;SDS011;6686;51.292;4.166;2023-05-20T14:46:53;4.00;;;2.80;;
13238;SDS011;6686;51.292;4.166;2023-05-20T14:49:39;3.17;;;2.87;;
13238;SDS011;6686;51.292;4.166;2023-05-20T14:52:24;6.47;;;3.70;;
13238;SDS011;6686;51.292;4.166;2023-05-20T14:55:10;9.67;;;4.50;;
13238;SDS011;6686;51.292;4.166;2023-05-20T14:57:56;4.77;;;4.10;;
13238;SDS011;6686;51.292;4.166;2023-05-20T15:00:43;4.23;;;3.73;;
13238;SDS011;6686;51.292;4.166;2023-05-20T15:03:28;3.97;;;3.27;;
13238;SDS011;6686;51.292;4.166;2023-05-20T15:06:14;5.23;;;2.80;;
13238;SDS011;6686;51.292;4.166;2023-05-20T15:09:00;4.70;;;3.57;;
13238;SDS011;6686;51.292;4.166;2023-05-20T15:11:46;3.20;;;2.90;;
13238;SDS011;6686;51.292;4.166;2023-05-20T15:14:32;3.53;;;3.03;;
13238;SDS011;6686;51.292;4.166;2023-05-20T15:17:17;2.97;;;2.67;;
13238;SDS011;6686;51.292;4.166;2023-05-20T15:20:04;3.03;;;2.80;;
13238;SDS011;6686;51.292;4.166;2023-05-20T15:22:50;3.17;;;2.87;;
13238;SDS011;6686;51.292;4.166;2023-05-20T15:25:36;3.83;;;2.83;;
13238;SDS011;6686;51.292;4.166;2023-05-20T15:28:22;3.77;;;2.60;;
13238;SDS011;6686;51.292;4.166;2023-05-20T15:31:08;3.37;;;2.57;;
13238;SDS011;6686;51.292;4.166;2023-05-20T15:33:54;5.27;;;2.60;;
13238;SDS011;6686;51.292;4.166;2023-05-20T15:36:40;3.47;;;2.63;;
13238;SDS011;6686;51.292;4.166;2023-05-20T15:39:26;2.90;;;2.70;;
13238;SDS011;6686;51.292;4.166;2023-05-20T15:42:12;3.60;;;3.00;;
13238;SDS011;6686;51.292;4.166;2023-05-20T15:44:58;5.57;;;2.93;;
13238;SDS011;6686;51.292;4.166;2023-05-20T15:47:44;4.50;;;2.93;;
13238;SDS011;6686;51.292;4.166;2023-05-20T15:50:30;3.70;;;3.03;;
13238;SDS011;6686;51.292;4.166;2023-05-20T15:53:15;7.70;;;3.00;;
13238;SDS011;6686;51.292;4.166;2023-05-20T15:56:01;4.23;;;2.80;;
13238;SDS011;6686;51.292;4.166;2023-05-20T15:58:47;4.78;;;3.35;;
13238;SDS011;6686;51.292;4.166;2023-05-20T16:01:34;3.67;;;2.87;;
13238;SDS011;6686;51.292;4.166;2023-05-20T16:04:19;3.60;;;3.30;;
13238;SDS011;6686;51.292;4.166;2023-05-20T16:07:05;4.43;;;2.77;;
13238;SDS011;6686;51.292;4.166;2023-05-20T16:09:51;3.50;;;2.67;;
13238;SDS011;6686;51.292;4.166;2023-05-20T16:12:37;4.33;;;2.40;;
13238;SDS011;6686;51.292;4.166;2023-05-20T16:15:24;3.37;;;2.53;;
13238;SDS011;6686;51.292;4.166;2023-05-20T16:18:09;5.83;;;3.30;;
13238;SDS011;6686;51.292;4.166;2023-05-20T16:20:55;3.00;;;2.70;;
13238;SDS011;6686;51.292;4.166;2023-05-20T16:23:40;6.93;;;2.60;;
13238;SDS011;6686;51.292;4.166;2023-05-20T16:26:27;3.03;;;2.50;;
13238;SDS011;6686;51.292;4.166;2023-05-20T16:29:12;2.90;;;2.60;;
13238;SDS011;6686;51.292;4.166;2023-05-20T16:31:58;3.33;;;3.03;;
13238;SDS011;6686;51.292;4.166;2023-05-20T16:34:44;5.00;;;3.08;;
13238;SDS011;6686;51.292;4.166;2023-05-20T16:37:30;2.93;;;2.70;;
13238;SDS011;6686;51.292;4.166;2023-05-20T16:40:15;3.00;;;2.70;;
13238;SDS011;6686;51.292;4.166;2023-05-20T16:43:01;3.83;;;2.70;;
13238;SDS011;6686;51.292;4.166;2023-05-20T16:45:47;3.00;;;2.40;;
13238;SDS011;6686;51.292;4.166;2023-05-20T16:48:33;2.97;;;2.70;;
13238;SDS011;6686;51.292;4.166;2023-05-20T16:51:19;4.80;;;3.40;;
13238;SDS011;6686;51.292;4.166;2023-05-20T16:54:05;4.10;;;3.22;;
13238;SDS011;6686;51.292;4.166;2023-05-20T16:56:51;3.23;;;2.93;;
13238;SDS011;6686;51.292;4.166;2023-05-20T16:59:37;4.12;;;2.90;;
13238;SDS011;6686;51.292;4.166;2023-05-20T17:02:22;4.45;;;2.92;;
13238;SDS011;6686;51.292;4.166;2023-05-20T17:05:09;3.70;;;2.57;;
13238;SDS011;6686;51.292;4.166;2023-05-20T17:07:54;6.13;;;2.80;;
13238;SDS011;6686;51.292;4.166;2023-05-20T17:10:40;4.28;;;2.62;;